sensor_id;sensor_type;location;lat;lon;timestamp;pressure;altitude;pressure_sealevel;temperature;humidity
20424;BME280;10371;49.042;8.002;2023-06-10T00:00:25;99430.13;;;19.03;70.28
20424;BME280;10371;49.042;8.002;2023-06-10T00:01:26;99436.16;;;18.97;70.55
20424;BME280;10371;49.042;8.002;2023-06-10T00:02:27;99428.00;;;18.92;70.92
20424;BME280;10371;49.042;8.002;2023-06-10T00:03:28;99432.56;;;18.83;71.35
20424;BME280;10371;49.042;8.002;2023-06-10T00:04:28;99428.84;;;18.78;71.73
20424;BME280;10371;49.042;8.002;2023-06-10T00:05:28;99435.03;;;18.70;71.97
20424;BME280;10371;49.042;8.002;2023-06-10T00:06:30;99432.69;;;18.60;72.47
20424;BME280;10371;49.042;8.002;2023-06-10T00:07:35;99431.34;;;18.49;73.32
20424;BME280;10371;49.042;8.002;2023-06-10T00:08:38;99436.09;;;18.39;73.72
20424;BME280;10371;49.042;8.002;2023-06-10T00:09:39;99434.53;;;18.30;74.11
20424;BME280;10371;49.042;8.002;2023-06-10T00:10:40;99438.72;;;18.24;74.54
20424;BME280;10371;49.042;8.002;2023-06-10T00:11:41;99441.94;;;18.20;74.70
20424;BME280;10371;49.042;8.002;2023-06-10T00:12:41;99435.56;;;18.14;74.91
20424;BME280;10371;49.042;8.002;2023-06-10T00:13:42;99434.13;;;18.12;75.23
20424;BME280;10371;49.042;8.002;2023-06-10T00:14:42;99436.31;;;18.08;75.42
20424;BME280;10371;49.042;8.002;2023-06-10T00:15:43;99437.28;;;18.07;75.28
20424;BME280;10371;49.042;8.002;2023-06-10T00:16:43;99442.56;;;18.07;75.41
20424;BME280;10371;49.042;8.002;2023-06-10T00:17:45;99443.56;;;18.06;75.39
20424;BME280;10371;49.042;8.002;2023-06-10T00:18:45;99447.38;;;18.03;75.73
20424;BME280;10371;49.042;8.002;2023-06-10T00:19:47;99447.53;;;18.02;75.78
20424;BME280;10371;49.042;8.002;2023-06-10T00:20:47;99438.00;;;18.01;75.65
20424;BME280;10371;49.042;8.002;2023-06-10T00:21:48;99445.91;;;18.01;75.61
20424;BME280;10371;49.042;8.002;2023-06-10T00:22:51;99442.63;;;17.99;75.73
20424;BME280;10371;49.042;8.002;2023-06-10T00:23:51;99450.91;;;17.96;76.02
20424;BME280;10371;49.042;8.002;2023-06-10T00:24:51;99434.66;;;17.92;76.23
20424;BME280;10371;49.042;8.002;2023-06-10T00:25:52;99440.38;;;17.96;75.93
20424;BME280;10371;49.042;8.002;2023-06-10T00:26:52;99437.94;;;17.94;76.06
20424;BME280;10371;49.042;8.002;2023-06-10T00:27:52;99436.28;;;17.93;76.09
20424;BME280;10371;49.042;8.002;2023-06-10T00:28:53;99443.19;;;17.94;76.03
20424;BME280;10371;49.042;8.002;2023-06-10T00:29:53;99436.28;;;17.93;75.95
20424;BME280;10371;49.042;8.002;2023-06-10T00:30:53;99431.13;;;18.00;75.70
20424;BME280;10371;49.042;8.002;2023-06-10T00:31:53;99439.03;;;18.00;75.64
20424;BME280;10371;49.042;8.002;2023-06-10T00:32:57;99427.09;;;18.04;75.52
20424;BME280;10371;49.042;8.002;2023-06-10T00:33:57;99427.09;;;18.04;75.50
20424;BME280;10371;49.042;8.002;2023-06-10T00:34:59;99435.66;;;18.06;75.52
20424;BME280;10371;49.042;8.002;2023-06-10T00:35:59;99433.47;;;18.09;75.37
20424;BME280;10371;49.042;8.002;2023-06-10T00:36:59;99431.28;;;18.13;75.15
20424;BME280;10371;49.042;8.002;2023-06-10T00:37:59;99436.53;;;18.13;75.31
20424;BME280;10371;49.042;8.002;2023-06-10T00:39:00;99432.28;;;18.12;75.30
20424;BME280;10371;49.042;8.002;2023-06-10T00:40:00;99432.72;;;18.16;75.15
20424;BME280;10371;49.042;8.002;2023-06-10T00:41:01;99431.38;;;18.20;75.09
20424;BME280;10371;49.042;8.002;2023-06-10T00:42:01;99431.38;;;18.20;74.92
20424;BME280;10371;49.042;8.002;2023-06-10T00:43:01;99433.09;;;18.27;74.73
20424;BME280;10371;49.042;8.002;2023-06-10T00:44:02;99428.34;;;18.38;74.26
20424;BME280;10371;49.042;8.002;2023-06-10T00:45:03;99429.28;;;18.45;74.01
20424;BME280;10371;49.042;8.002;2023-06-10T00:46:03;99429.72;;;18.48;73.81
20424;BME280;10371;49.042;8.002;2023-06-10T00:47:05;99429.97;;;18.53;73.56
20424;BME280;10371;49.042;8.002;2023-06-10T00:48:05;99420.94;;;18.63;73.34
20424;BME280;10371;49.042;8.002;2023-06-10T00:49:05;99426.06;;;18.64;73.20
20424;BME280;10371;49.042;8.002;2023-06-10T00:50:06;99421.59;;;18.65;73.16
20424;BME280;10371;49.042;8.002;2023-06-10T00:51:08;99429.06;;;18.61;73.28
20424;BME280;10371;49.042;8.002;2023-06-10T00:52:09;99426.84;;;18.65;73.20
20424;BME280;10371;49.042;8.002;2023-06-10T00:53:10;99417.56;;;18.69;73.00
20424;BME280;10371;49.042;8.002;2023-06-10T00:54:11;99421.03;;;18.69;73.00
20424;BME280;10371;49.042;8.002;2023-06-10T00:55:15;99431.59;;;18.69;72.97
20424;BME280;10371;49.042;8.002;2023-06-10T00:56:16;99424.56;;;18.77;72.82
20424;BME280;10371;49.042;8.002;2023-06-10T00:57:17;99421.31;;;18.74;72.86
20424;BME280;10371;49.042;8.002;2023-06-10T00:58:17;99428.66;;;18.79;72.92
20424;BME280;10371;49.042;8.002;2023-06-10T00:59:18;99427.84;;;18.79;72.96
20424;BME280;10371;49.042;8.002;2023-06-10T01:00:18;99427.66;;;18.80;72.59
20424;BME280;10371;49.042;8.002;2023-06-10T01:01:19;99425.84;;;18.81;72.81
20424;BME280;10371;49.042;8.002;2023-06-10T01:02:20;99422.56;;;18.79;72.68
20424;BME280;10371;49.042;8.002;2023-06-10T01:03:20;99423.22;;;18.81;72.59
20424;BME280;10371;49.042;8.002;2023-06-10T01:04:20;99417.56;;;18.84;72.33
20424;BME280;10371;49.042;8.002;2023-06-10T01:05:23;99423.22;;;18.81;72.55
20424;BME280;10371;49.042;8.002;2023-06-10T01:06:36;99421.19;;;18.83;72.60
20424;BME280;10371;49.042;8.002;2023-06-10T01:07:50;99419.00;;;18.86;72.18
20424;BME280;10371;49.042;8.002;2023-06-10T01:08:59;99418.16;;;18.86;72.29
20424;BME280;10371;49.042;8.002;2023-06-10T01:11:16;99422.47;;;18.87;72.29
20424;BME280;10371;49.042;8.002;2023-06-10T01:12:41;99422.91;;;18.90;72.26
20424;BME280;10371;49.042;8.002;2023-06-10T01:13:50;99416.00;;;18.89;72.24
20424;BME280;10371;49.042;8.002;2023-06-10T01:14:51;99412.41;;;18.97;72.18
20424;BME280;10371;49.042;8.002;2023-06-10T01:15:53;99417.50;;;18.98;71.86
20424;BME280;10371;49.042;8.002;2023-06-10T01:16:53;99417.34;;;19.00;71.68
20424;BME280;10371;49.042;8.002;2023-06-10T01:18:02;99421.16;;;18.97;71.90
20424;BME280;10371;49.042;8.002;2023-06-10T01:19:03;99420.94;;;18.99;71.82
20424;BME280;10371;49.042;8.002;2023-06-10T01:20:04;99415.03;;;18.97;71.99
20424;BME280;10371;49.042;8.002;2023-06-10T01:21:04;99425.59;;;18.97;71.93
20424;BME280;10371;49.042;8.002;2023-06-10T01:22:04;99416.69;;;18.98;71.95
20424;BME280;10371;49.042;8.002;2023-06-10T01:23:06;99417.69;;;18.97;71.84
20424;BME280;10371;49.042;8.002;2023-06-10T01:24:06;99421.97;;;18.98;71.92
20424;BME280;10371;49.042;8.002;2023-06-10T01:25:08;99418.31;;;18.99;71.95
20424;BME280;10371;49.042;8.002;2023-06-10T01:26:10;99420.09;;;18.92;72.03
20424;BME280;10371;49.042;8.002;2023-06-10T01:27:13;99417.06;;;18.95;72.01
20424;BME280;10371;49.042;8.002;2023-06-10T01:28:22;99415.41;;;18.94;71.92
20424;BME280;10371;49.042;8.002;2023-06-10T01:29:58;99425.59;;;18.97;71.91
20424;BME280;10371;49.042;8.002;2023-06-10T01:33:15;99427.63;;;18.95;71.82
20424;BME280;10371;49.042;8.002;2023-06-10T01:34:18;99419.25;;;18.91;71.99
20424;BME280;10371;49.042;8.002;2023-06-10T01:35:21;99426.19;;;18.92;72.10
20424;BME280;10371;49.042;8.002;2023-06-10T01:36:24;99430.38;;;18.87;72.12
20424;BME280;10371;49.042;8.002;2023-06-10T01:37:26;99424.91;;;18.88;72.09
20424;BME280;10371;49.042;8.002;2023-06-10T01:38:27;99431.81;;;18.89;72.16
20424;BME280;10371;49.042;8.002;2023-06-10T01:39:27;99430.19;;;18.88;72.08
20424;BME280;10371;49.042;8.002;2023-06-10T01:40:29;99427.16;;;18.91;71.70
20424;BME280;10371;49.042;8.002;2023-06-10T01:41:30;99433.00;;;18.87;72.05
20424;BME280;10371;49.042;8.002;2023-06-10T01:42:31;99424.47;;;18.85;72.00
20424;BME280;10371;49.042;8.002;2023-06-10T01:43:37;99429.31;;;18.81;72.17
20424;BME280;10371;49.042;8.002;2023-06-10T01:44:38;99440.84;;;18.80;72.36
20424;BME280;10371;49.042;8.002;2023-06-10T01:45:39;99428.03;;;18.77;72.38
20424;BME280;10371;49.042;8.002;2023-06-10T01:46:39;99432.13;;;18.80;72.47
20424;BME280;10371;49.042;8.002;2023-06-10T01:47:39;99429.84;;;18.77;72.44
20424;BME280;10371;49.042;8.002;2023-06-10T01:48:41;99437.97;;;18.75;72.46
20424;BME280;10371;49.042;8.002;2023-06-10T01:49:42;99437.28;;;18.73;72.40
20424;BME280;10371;49.042;8.002;2023-06-10T01:50:42;99441.59;;;18.74;72.59
20424;BME280;10371;49.042;8.002;2023-06-10T01:51:43;99441.13;;;18.70;72.53
20424;BME280;10371;49.042;8.002;2023-06-10T01:52:45;99437.84;;;18.68;72.66
20424;BME280;10371;49.042;8.002;2023-06-10T01:53:45;99441.13;;;18.70;72.56
20424;BME280;10371;49.042;8.002;2023-06-10T01:54:45;99436.03;;;18.69;72.77
20424;BME280;10371;49.042;8.002;2023-06-10T01:55:46;99437.84;;;18.68;72.72
20424;BME280;10371;49.042;8.002;2023-06-10T01:56:46;99435.59;;;18.65;72.62
20424;BME280;10371;49.042;8.002;2023-06-10T01:57:46;99441.50;;;18.67;72.56
20424;BME280;10371;49.042;8.002;2023-06-10T01:58:47;99439.50;;;18.69;72.42
20424;BME280;10371;49.042;8.002;2023-06-10T01:59:47;99438.66;;;18.69;72.72
20424;BME280;10371;49.042;8.002;2023-06-10T02:00:47;99444.78;;;18.69;72.42
20424;BME280;10371;49.042;8.002;2023-06-10T02:01:47;99441.41;;;18.75;72.46
20424;BME280;10371;49.042;8.002;2023-06-10T02:02:48;99435.34;;;18.75;71.98
20424;BME280;10371;49.042;8.002;2023-06-10T02:03:48;99449.31;;;18.75;72.02
20424;BME280;10371;49.042;8.002;2023-06-10T02:04:49;99446.03;;;18.73;72.16
20424;BME280;10371;49.042;8.002;2023-06-10T02:05:49;99441.13;;;18.70;72.06
20424;BME280;10371;49.042;8.002;2023-06-10T02:06:49;99452.31;;;18.72;72.17
20424;BME280;10371;49.042;8.002;2023-06-10T02:07:50;99451.66;;;18.70;72.20
20424;BME280;10371;49.042;8.002;2023-06-10T02:08:51;99454.25;;;18.64;72.41
20424;BME280;10371;49.042;8.002;2023-06-10T02:09:51;99451.78;;;18.62;72.56
20424;BME280;10371;49.042;8.002;2023-06-10T02:10:51;99449.69;;;18.58;72.75
20424;BME280;10371;49.042;8.002;2023-06-10T02:11:51;99451.25;;;18.52;72.86
20424;BME280;10371;49.042;8.002;2023-06-10T02:12:52;99456.97;;;18.56;72.57
20424;BME280;10371;49.042;8.002;2023-06-10T02:13:52;99454.25;;;18.49;72.83
20424;BME280;10371;49.042;8.002;2023-06-10T02:14:52;99453.00;;;18.45;73.17
20424;BME280;10371;49.042;8.002;2023-06-10T02:15:52;99453.16;;;18.43;73.09
20424;BME280;10371;49.042;8.002;2023-06-10T02:16:54;99448.25;;;18.40;73.02
20424;BME280;10371;49.042;8.002;2023-06-10T02:17:56;99459.25;;;18.44;73.00
20424;BME280;10371;49.042;8.002;2023-06-10T02:18:58;99457.78;;;18.41;73.18
20424;BME280;10371;49.042;8.002;2023-06-10T02:19:58;99455.34;;;18.40;73.00
20424;BME280;10371;49.042;8.002;2023-06-10T02:20:59;99462.25;;;18.41;73.16
20424;BME280;10371;49.042;8.002;2023-06-10T02:22:00;99458.16;;;18.38;73.36
20424;BME280;10371;49.042;8.002;2023-06-10T02:23:00;99458.00;;;18.40;73.12
20424;BME280;10371;49.042;8.002;2023-06-10T02:24:01;99466.53;;;18.42;72.95
20424;BME280;10371;49.042;8.002;2023-06-10T02:25:01;99460.44;;;18.41;72.98
20424;BME280;10371;49.042;8.002;2023-06-10T02:26:01;99466.06;;;18.38;73.04
20424;BME280;10371;49.042;8.002;2023-06-10T02:27:02;99462.81;;;18.36;73.09
20424;BME280;10371;49.042;8.002;2023-06-10T02:28:03;99464.38;;;18.30;73.47
20424;BME280;10371;49.042;8.002;2023-06-10T02:29:04;99469.66;;;18.30;73.18
20424;BME280;10371;49.042;8.002;2023-06-10T02:30:05;99457.44;;;18.29;73.38
20424;BME280;10371;49.042;8.002;2023-06-10T02:31:05;99458.91;;;18.32;73.18
20424;BME280;10371;49.042;8.002;2023-06-10T02:32:06;99461.16;;;18.35;73.19
20424;BME280;10371;49.042;8.002;2023-06-10T02:33:07;99463.34;;;18.31;73.18
20424;BME280;10371;49.042;8.002;2023-06-10T02:34:10;99462.72;;;18.29;73.10
20424;BME280;10371;49.042;8.002;2023-06-10T02:35:10;99463.72;;;18.28;73.13
20424;BME280;10371;49.042;8.002;2023-06-10T02:36:12;99472.28;;;18.30;73.07
20424;BME280;10371;49.042;8.002;2023-06-10T02:37:13;99465.19;;;18.31;73.16
20424;BME280;10371;49.042;8.002;2023-06-10T02:38:13;99470.63;;;18.29;73.04
20424;BME280;10371;49.042;8.002;2023-06-10T02:39:13;99469.00;;;18.28;73.14
20424;BME280;10371;49.042;8.002;2023-06-10T02:40:14;99470.81;;;18.28;73.06
20424;BME280;10371;49.042;8.002;2023-06-10T02:41:14;99469.38;;;18.25;73.09
20424;BME280;10371;49.042;8.002;2023-06-10T02:42:14;99469.91;;;18.21;73.27
20424;BME280;10371;49.042;8.002;2023-06-10T02:43:15;99474.81;;;18.24;73.14
20424;BME280;10371;49.042;8.002;2023-06-10T02:44:17;99481.09;;;18.23;73.24
20424;BME280;10371;49.042;8.002;2023-06-10T02:45:18;99474.44;;;18.27;73.26
20424;BME280;10371;49.042;8.002;2023-06-10T02:46:18;99474.81;;;18.24;73.21
20424;BME280;10371;49.042;8.002;2023-06-10T02:47:18;99480.53;;;18.27;72.81
20424;BME280;10371;49.042;8.002;2023-06-10T02:48:19;99480.06;;;18.24;73.15
20424;BME280;10371;49.042;8.002;2023-06-10T02:49:19;99482.06;;;18.22;73.11
20424;BME280;10371;49.042;8.002;2023-06-10T02:50:20;99478.63;;;18.21;73.28
20424;BME280;10371;49.042;8.002;2023-06-10T02:51:20;99476.72;;;18.15;73.36
20424;BME280;10371;49.042;8.002;2023-06-10T02:52:21;99480.34;;;18.14;73.73
20424;BME280;10371;49.042;8.002;2023-06-10T02:53:21;99483.16;;;18.13;73.45
20424;BME280;10371;49.042;8.002;2023-06-10T02:54:25;99482.34;;;18.12;73.61
20424;BME280;10371;49.042;8.002;2023-06-10T02:55:25;99486.00;;;18.11;73.64
20424;BME280;10371;49.042;8.002;2023-06-10T02:56:26;99480.72;;;18.11;73.76
20424;BME280;10371;49.042;8.002;2023-06-10T02:57:27;99492.72;;;18.14;73.36
20424;BME280;10371;49.042;8.002;2023-06-10T02:58:27;99479.88;;;18.11;73.46
20424;BME280;10371;49.042;8.002;2023-06-10T02:59:27;99485.16;;;18.11;73.50
20424;BME280;10371;49.042;8.002;2023-06-10T03:00:28;99491.25;;;18.11;73.57
20424;BME280;10371;49.042;8.002;2023-06-10T03:01:29;99493.91;;;18.11;73.45
20424;BME280;10371;49.042;8.002;2023-06-10T03:02:31;99494.25;;;18.08;73.58
20424;BME280;10371;49.042;8.002;2023-06-10T03:03:31;99489.59;;;18.10;73.63
20424;BME280;10371;49.042;8.002;2023-06-10T03:04:33;99493.25;;;18.09;73.45
20424;BME280;10371;49.042;8.002;2023-06-10T03:05:34;99491.63;;;18.08;73.65
20424;BME280;10371;49.042;8.002;2023-06-10T03:06:34;99491.50;;;18.01;73.81
20424;BME280;10371;49.042;8.002;2023-06-10T03:07:36;99498.75;;;17.99;73.98
20424;BME280;10371;49.042;8.002;2023-06-10T03:08:36;99493.69;;;17.98;74.20
20424;BME280;10371;49.042;8.002;2023-06-10T03:09:37;99486.78;;;17.97;74.21
20424;BME280;10371;49.042;8.002;2023-06-10T03:10:38;99495.41;;;17.91;74.36
20424;BME280;10371;49.042;8.002;2023-06-10T03:11:38;99492.97;;;17.89;74.37
20424;BME280;10371;49.042;8.002;2023-06-10T03:12:38;99499.69;;;17.92;74.38
20424;BME280;10371;49.042;8.002;2023-06-10T03:13:38;99492.16;;;17.89;74.70
20424;BME280;10371;49.042;8.002;2023-06-10T03:14:40;99498.59;;;17.86;74.53
20424;BME280;10371;49.042;8.002;2023-06-10T03:15:40;99494.50;;;17.83;74.78
20424;BME280;10371;49.042;8.002;2023-06-10T03:16:41;99487.94;;;17.79;74.78
20424;BME280;10371;49.042;8.002;2023-06-10T03:17:42;99491.69;;;17.77;74.94
20424;BME280;10371;49.042;8.002;2023-06-10T03:18:42;99494.69;;;17.74;75.28
20424;BME280;10371;49.042;8.002;2023-06-10T03:19:43;99495.88;;;17.71;75.29
20424;BME280;10371;49.042;8.002;2023-06-10T03:20:43;99489.97;;;17.69;75.21
20424;BME280;10371;49.042;8.002;2023-06-10T03:21:45;99492.13;;;17.65;75.29
20424;BME280;10371;49.042;8.002;2023-06-10T03:22:45;99495.56;;;17.66;75.47
20424;BME280;10371;49.042;8.002;2023-06-10T03:23:45;99500.69;;;17.68;75.49
20424;BME280;10371;49.042;8.002;2023-06-10T03:24:46;99496.22;;;17.68;75.44
20424;BME280;10371;49.042;8.002;2023-06-10T03:25:46;99500.69;;;17.68;75.55
20424;BME280;10371;49.042;8.002;2023-06-10T03:26:46;99499.88;;;17.67;75.56
20424;BME280;10371;49.042;8.002;2023-06-10T03:27:47;99502.66;;;17.65;75.63
20424;BME280;10371;49.042;8.002;2023-06-10T03:28:47;99501.03;;;17.64;75.68
20424;BME280;10371;49.042;8.002;2023-06-10T03:29:48;99499.56;;;17.62;75.69
20424;BME280;10371;49.042;8.002;2023-06-10T03:30:48;99507.63;;;17.60;76.00
20424;BME280;10371;49.042;8.002;2023-06-10T03:31:49;99497.47;;;17.57;76.13
20424;BME280;10371;49.042;8.002;2023-06-10T03:32:49;99494.31;;;17.62;75.74
20424;BME280;10371;49.042;8.002;2023-06-10T03:33:50;99509.44;;;17.60;75.73
20424;BME280;10371;49.042;8.002;2023-06-10T03:34:51;99496.94;;;17.62;75.84
20424;BME280;10371;49.042;8.002;2023-06-10T03:35:51;99506.66;;;17.61;75.80
20424;BME280;10371;49.042;8.002;2023-06-10T03:36:51;99500.59;;;17.61;75.72
20424;BME280;10371;49.042;8.002;2023-06-10T03:37:52;99505.13;;;17.67;75.61
20424;BME280;10371;49.042;8.002;2023-06-10T03:38:52;99499.06;;;17.67;75.44
20424;BME280;10371;49.042;8.002;2023-06-10T03:39:53;99505.13;;;17.67;75.52
20424;BME280;10371;49.042;8.002;2023-06-10T03:40:54;99505.13;;;17.67;75.47
20424;BME280;10371;49.042;8.002;2023-06-10T03:41:55;99507.56;;;17.69;75.22
20424;BME280;10371;49.042;8.002;2023-06-10T03:42:56;99495.25;;;17.69;75.45
20424;BME280;10371;49.042;8.002;2023-06-10T03:43:57;99510.69;;;17.72;75.30
20424;BME280;10371;49.042;8.002;2023-06-10T03:44:57;99500.78;;;17.74;75.07
20424;BME280;10371;49.042;8.002;2023-06-10T03:45:57;99508.06;;;17.72;75.19
20424;BME280;10371;49.042;8.002;2023-06-10T03:46:57;99501.63;;;17.75;75.24
20424;BME280;10371;49.042;8.002;2023-06-10T03:48:00;99504.06;;;17.76;75.02
20424;BME280;10371;49.042;8.002;2023-06-10T03:49:01;99506.69;;;17.76;75.09
20424;BME280;10371;49.042;8.002;2023-06-10T03:50:02;99507.38;;;17.78;74.93
20424;BME280;10371;49.042;8.002;2023-06-10T03:51:03;99513.28;;;17.80;74.79
20424;BME280;10371;49.042;8.002;2023-06-10T03:52:04;99508.19;;;17.79;74.86
20424;BME280;10371;49.042;8.002;2023-06-10T03:53:04;99499.47;;;17.78;75.02
20424;BME280;10371;49.042;8.002;2023-06-10T03:54:04;99502.75;;;17.80;75.03
20424;BME280;10371;49.042;8.002;2023-06-10T03:55:05;99506.53;;;17.78;75.05
20424;BME280;10371;49.042;8.002;2023-06-10T03:56:06;99505.69;;;17.77;75.26
20424;BME280;10371;49.042;8.002;2023-06-10T03:57:06;99506.03;;;17.74;75.43
20424;BME280;10371;49.042;8.002;2023-06-10T03:58:06;99513.78;;;17.76;75.46
20424;BME280;10371;49.042;8.002;2023-06-10T03:59:07;99515.59;;;17.75;75.35
20424;BME280;10371;49.042;8.002;2023-06-10T04:00:07;99516.56;;;17.74;75.57
20424;BME280;10371;49.042;8.002;2023-06-10T04:01:12;99514.13;;;17.73;75.55
20424;BME280;10371;49.042;8.002;2023-06-10T04:02:13;99515.97;;;17.72;75.60
20424;BME280;10371;49.042;8.002;2023-06-10T04:03:13;99518.59;;;17.72;75.91
20424;BME280;10371;49.042;8.002;2023-06-10T04:04:14;99523.50;;;17.75;75.76
20424;BME280;10371;49.042;8.002;2023-06-10T04:05:19;99520.22;;;17.73;75.93
20424;BME280;10371;49.042;8.002;2023-06-10T04:06:21;99520.88;;;17.75;75.79
20424;BME280;10371;49.042;8.002;2023-06-10T04:07:22;99518.84;;;17.77;75.66
20424;BME280;10371;49.042;8.002;2023-06-10T04:08:23;99513.59;;;17.77;75.82
20424;BME280;10371;49.042;8.002;2023-06-10T04:09:24;99524.63;;;17.81;75.86
20424;BME280;10371;49.042;8.002;2023-06-10T04:10:24;99525.44;;;17.81;75.67
20424;BME280;10371;49.042;8.002;2023-06-10T04:11:24;99526.09;;;17.83;75.70
20424;BME280;10371;49.042;8.002;2023-06-10T04:12:24;99525.72;;;17.86;75.71
20424;BME280;10371;49.042;8.002;2023-06-10T04:13:25;99528.16;;;17.88;75.74
20424;BME280;10371;49.042;8.002;2023-06-10T04:14:26;99532.25;;;17.91;75.61
20424;BME280;10371;49.042;8.002;2023-06-10T04:15:26;99527.81;;;17.91;75.90
20424;BME280;10371;49.042;8.002;2023-06-10T04:16:27;99521.56;;;17.92;75.67
20424;BME280;10371;49.042;8.002;2023-06-10T04:17:27;99531.75;;;17.95;75.84
20424;BME280;10371;49.042;8.002;2023-06-10T04:18:28;99522.03;;;17.96;75.89
20424;BME280;10371;49.042;8.002;2023-06-10T04:19:28;99524.28;;;17.99;75.96
20424;BME280;10371;49.042;8.002;2023-06-10T04:20:28;99528.59;;;18.00;75.89
20424;BME280;10371;49.042;8.002;2023-06-10T04:21:29;99527.94;;;17.98;75.86
20424;BME280;10371;49.042;8.002;2023-06-10T04:22:29;99521.50;;;18.00;75.44
20424;BME280;10371;49.042;8.002;2023-06-10T04:23:29;99527.38;;;18.02;75.54
20424;BME280;10371;49.042;8.002;2023-06-10T04:24:29;99529.03;;;18.03;75.46
20424;BME280;10371;49.042;8.002;2023-06-10T04:25:30;99526.03;;;18.06;75.43
20424;BME280;10371;49.042;8.002;2023-06-10T04:26:30;99527.31;;;18.11;75.74
20424;BME280;10371;49.042;8.002;2023-06-10T04:27:31;99525.16;;;18.14;75.95
20424;BME280;10371;49.042;8.002;2023-06-10T04:28:32;99528.88;;;18.20;76.33
20424;BME280;10371;49.042;8.002;2023-06-10T04:29:32;99530.59;;;18.27;76.64
20424;BME280;10371;49.042;8.002;2023-06-10T04:30:32;99529.97;;;18.25;76.46
20424;BME280;10371;49.042;8.002;2023-06-10T04:31:33;99529.84;;;18.19;75.96
20424;BME280;10371;49.042;8.002;2023-06-10T04:32:33;99532.13;;;18.22;75.77
20424;BME280;10371;49.042;8.002;2023-06-10T04:33:34;99530.34;;;18.22;75.71
20424;BME280;10371;49.042;8.002;2023-06-10T04:34:34;99539.50;;;18.26;75.69
20424;BME280;10371;49.042;8.002;2023-06-10T04:35:34;99538.50;;;18.27;75.58
20424;BME280;10371;49.042;8.002;2023-06-10T04:36:34;99536.50;;;18.29;75.15
20424;BME280;10371;49.042;8.002;2023-06-10T04:37:35;99539.41;;;18.35;75.22
20424;BME280;10371;49.042;8.002;2023-06-10T04:38:35;99543.16;;;18.40;74.67
20424;BME280;10371;49.042;8.002;2023-06-10T04:39:35;99542.97;;;18.57;74.32
20424;BME280;10371;49.042;8.002;2023-06-10T04:40:35;99537.50;;;18.73;73.71
20424;BME280;10371;49.042;8.002;2023-06-10T04:41:36;99541.59;;;18.90;73.25
20424;BME280;10371;49.042;8.002;2023-06-10T04:42:36;99532.56;;;19.00;72.49
20424;BME280;10371;49.042;8.002;2023-06-10T04:43:37;99546.19;;;19.18;72.07
20424;BME280;10371;49.042;8.002;2023-06-10T04:44:38;99545.06;;;19.27;71.83
20424;BME280;10371;49.042;8.002;2023-06-10T04:45:39;99547.78;;;19.34;71.52
20424;BME280;10371;49.042;8.002;2023-06-10T04:46:39;99547.09;;;19.47;71.16
20424;BME280;10371;49.042;8.002;2023-06-10T04:47:40;99548.63;;;19.56;70.81
20424;BME280;10371;49.042;8.002;2023-06-10T04:48:40;99548.75;;;19.69;70.65
20424;BME280;10371;49.042;8.002;2023-06-10T04:49:42;99548.63;;;19.77;70.02
20424;BME280;10371;49.042;8.002;2023-06-10T04:50:42;99541.16;;;19.81;69.84
20424;BME280;10371;49.042;8.002;2023-06-10T04:51:43;99553.84;;;19.92;69.67
20424;BME280;10371;49.042;8.002;2023-06-10T04:52:43;99552.06;;;19.99;69.25
20424;BME280;10371;49.042;8.002;2023-06-10T04:53:44;99550.22;;;20.00;69.22
20424;BME280;10371;49.042;8.002;2023-06-10T04:54:45;99549.78;;;19.96;69.41
20424;BME280;10371;49.042;8.002;2023-06-10T04:55:45;99545.56;;;20.02;69.34
20424;BME280;10371;49.042;8.002;2023-06-10T04:56:45;99547.56;;;20.00;69.33
20424;BME280;10371;49.042;8.002;2023-06-10T04:57:46;99547.81;;;20.05;69.27
20424;BME280;10371;49.042;8.002;2023-06-10T04:58:46;99548.25;;;20.08;69.36
20424;BME280;10371;49.042;8.002;2023-06-10T04:59:47;99547.03;;;20.11;69.55
20424;BME280;10371;49.042;8.002;2023-06-10T05:00:47;99554.66;;;20.21;69.72
20424;BME280;10371;49.042;8.002;2023-06-10T05:01:48;99547.97;;;20.25;69.24
20424;BME280;10371;49.042;8.002;2023-06-10T05:02:48;99546.16;;;20.25;69.23
20424;BME280;10371;49.042;8.002;2023-06-10T05:03:49;99535.22;;;20.35;69.06
20424;BME280;10371;49.042;8.002;2023-06-10T05:04:50;99552.53;;;20.38;69.04
20424;BME280;10371;49.042;8.002;2023-06-10T05:05:50;99543.25;;;20.48;68.71
20424;BME280;10371;49.042;8.002;2023-06-10T05:06:50;99546.66;;;20.42;68.87
20424;BME280;10371;49.042;8.002;2023-06-10T05:07:50;99550.31;;;20.41;68.70
20424;BME280;10371;49.042;8.002;2023-06-10T05:08:51;99544.03;;;20.42;68.76
20424;BME280;10371;49.042;8.002;2023-06-10T05:09:51;99550.53;;;20.46;68.64
20424;BME280;10371;49.042;8.002;2023-06-10T05:10:51;99552.59;;;20.51;68.84
20424;BME280;10371;49.042;8.002;2023-06-10T05:11:52;99554.13;;;20.67;68.72
20424;BME280;10371;49.042;8.002;2023-06-10T05:12:53;99551.53;;;20.73;68.53
20424;BME280;10371;49.042;8.002;2023-06-10T05:13:53;99552.94;;;20.69;68.16
20424;BME280;10371;49.042;8.002;2023-06-10T05:14:54;99562.28;;;20.72;68.41
20424;BME280;10371;49.042;8.002;2023-06-10T05:15:54;99565.81;;;20.79;68.41
20424;BME280;10371;49.042;8.002;2023-06-10T05:16:54;99557.69;;;20.87;68.24
20424;BME280;10371;49.042;8.002;2023-06-10T05:17:57;99554.81;;;20.82;67.98
20424;BME280;10371;49.042;8.002;2023-06-10T05:18:58;99560.38;;;20.94;68.17
20424;BME280;10371;49.042;8.002;2023-06-10T05:19:58;99558.34;;;21.03;68.07
20424;BME280;10371;49.042;8.002;2023-06-10T05:20:59;99554.91;;;21.09;67.69
20424;BME280;10371;49.042;8.002;2023-06-10T05:21:59;99559.63;;;21.20;67.67
20424;BME280;10371;49.042;8.002;2023-06-10T05:22:59;99559.25;;;21.23;67.40
20424;BME280;10371;49.042;8.002;2023-06-10T05:24:00;99556.44;;;21.31;67.70
20424;BME280;10371;49.042;8.002;2023-06-10T05:25:00;99558.72;;;21.48;67.10
20424;BME280;10371;49.042;8.002;2023-06-10T05:26:00;99559.16;;;21.51;66.74
20424;BME280;10371;49.042;8.002;2023-06-10T05:27:00;99557.72;;;21.55;66.87